Portada
METAR-TAF:

METAR-TAF

Aeropuertos :

Aeropuerto Internacional Rey Fahd

Dammam, Arabia Saudita

latitud: 26-28N, longitud: 049-47E, altitud: 22 m

Observación

El informe se hizo hace 55 minutos, a las 02:00 UTC
Viento 7 kt del oeste
Temperatura 13°C
Humedad 47%
Presión 1019 hPa
Visibilidad 10 km o más
sin nubes por debajo de 1500 m y sin presencia de cumulonimbus.

METAR: OEDF 270200Z 28007KT CAVOK 13/02 Q1019 NOSIG

Hora: 05:55 (02:55 UTC)

Pronóstico

El informe se hizo hace 5 horas y 25 minutos, a las 21:30 UTC
Pronóstico válido del 27 a las 00 UTC al 28 a las 06 UTC
Viento 12 kt del noroeste
Visibilidad 10 km o más
sin nubes por debajo de 1500 m y sin presencia de cumulonimbus.
Evolucionando progresivamente
del 27 a las 08 UTC al 27 a las 10 UTC
Viento 18 kt del norte
Evolucionando progresivamente
del 27 a las 18 UTC al 27 a las 20 UTC
Viento 8 kt del oeste-noroeste

TAF: OEDF 262130Z 2700/2806 31012KT CAVOK BECMG 2708/2710 35018KT BECMG 2718/2720 30008KT

Observaciones y pronósticos meteorológicos de más de 4000 aeropuertos (mensajes METAR y TAF).

Los puntos amarillos y rojos representan las estaciones disponibles.

Ponga el ratón en el punto deseado para ver el nombre de la estación.

Haga clic para ver las observaciones y los pronósticos meteorológicos.

Para cambiar el mapa : haga clic en los botones verdes con una cruz de color negro para hacer un zoom, en el botón verde con un guión para alejar o en las flechas verdes para mapas adyacentes.


METAR-TAF: